createdAt,value
2017-02-22T00:00:36.290Z,11.05
2017-02-22T00:01:35.878Z,11.13
2017-02-22T00:02:36.239Z,11.17
2017-02-22T00:03:35.825Z,11.03
2017-02-22T00:04:35.819Z,11.13
2017-02-22T00:05:35.403Z,11.11
2017-02-22T00:06:36.194Z,11.13
2017-02-22T00:07:35.765Z,11.2
2017-02-22T00:08:35.734Z,11.13
2017-02-22T00:09:35.427Z,11.21
2017-02-22T00:10:36.094Z,11.29
2017-02-22T00:11:36.060Z,11.24
2017-02-22T00:12:36.032Z,11.15
2017-02-22T00:13:35.628Z,11.15
2017-02-22T00:14:36.001Z,11.24
2017-02-22T00:15:35.570Z,11.23
2017-02-22T00:16:35.941Z,11.29
2017-02-22T00:17:35.935Z,11.32
2017-02-22T00:18:35.908Z,11.29
2017-02-22T00:19:35.887Z,11.38
2017-02-22T00:20:35.117Z,11.33
2017-02-22T00:21:35.456Z,11.24
2017-02-22T00:22:35.842Z,11.24
2017-02-22T00:23:35.024Z,11.24
2017-02-22T00:24:35.416Z,11.39
2017-02-22T00:25:35.378Z,11.35
2017-02-22T00:26:35.368Z,11.29
2017-02-22T00:27:35.334Z,11.24
2017-02-22T00:28:35.323Z,11.24
2017-02-22T00:29:35.692Z,11.24
2017-02-22T00:30:34.879Z,11.31
2017-02-22T00:31:35.662Z,11.35
2017-02-22T00:32:35.626Z,11.33
2017-02-22T00:33:35.218Z,11.38
2017-02-22T00:34:35.590Z,11.32
2017-02-22T00:35:34.791Z,11.4
2017-02-22T00:36:35.171Z,11.36
2017-02-22T00:37:34.756Z,11.38
2017-02-22T00:38:35.116Z,11.35
2017-02-22T00:39:35.087Z,11.38
2017-02-22T00:40:35.076Z,11.38
2017-02-22T00:41:35.436Z,11.39
2017-02-22T00:42:35.036Z,11.42
2017-02-22T00:43:35.014Z,11.51
2017-02-22T00:44:35.007Z,11.42
2017-02-22T00:45:34.989Z,11.47
2017-02-22T00:46:35.354Z,11.43
2017-02-22T00:47:34.933Z,11.46
2017-02-22T00:48:34.902Z,11.46
2017-02-22T00:49:35.284Z,11.48
2017-02-22T00:50:35.259Z,11.4
2017-02-22T00:51:34.841Z,11.43
2017-02-22T00:52:34.447Z,11.5
2017-02-22T00:53:34.829Z,11.43
2017-02-22T00:54:34.799Z,11.47
2017-02-22T00:55:35.160Z,11.4
2017-02-22T00:56:34.741Z,11.47
2017-02-22T00:57:35.118Z,11.48
2017-02-22T00:58:34.327Z,11.42
2017-02-22T00:59:34.688Z,11.46
2017-02-22T01:00:34.675Z,11.43
2017-02-22T01:01:34.674Z,11.46
2017-02-22T01:02:34.624Z,11.42
2017-02-22T01:03:34.994Z,11.4
2017-02-22T01:04:34.589Z,11.42
2017-02-22T01:05:34.563Z,11.42
2017-02-22T01:06:34.921Z,11.43
2017-02-22T01:07:34.531Z,11.43
2017-02-22T01:08:34.886Z,11.46
2017-02-22T01:09:34.862Z,11.58
2017-02-22T01:10:34.850Z,11.46
2017-02-22T01:11:34.060Z,11.47
2017-02-22T01:12:34.069Z,11.47
2017-02-22T01:13:34.808Z,11.5
2017-02-22T01:14:34.418Z,11.48
2017-02-22T01:15:34.743Z,11.47
2017-02-22T01:16:34.787Z,11.43
2017-02-22T01:17:33.945Z,11.46
2017-02-22T01:18:34.345Z,11.47
2017-02-22T01:19:34.675Z,11.46
2017-02-22T01:20:34.678Z,11.43
2017-02-22T01:21:34.262Z,11.46
2017-02-22T01:22:34.662Z,11.46
2017-02-22T01:23:33.822Z,11.48
2017-02-22T01:24:33.843Z,11.43
2017-02-22T01:25:34.561Z,11.48
2017-02-22T01:26:34.141Z,11.5
2017-02-22T01:27:33.740Z,11.48
2017-02-22T01:28:33.780Z,11.47
2017-02-22T01:29:34.089Z,11.57
2017-02-22T01:30:34.459Z,11.58
2017-02-22T01:31:34.428Z,11.56
2017-02-22T01:32:34.028Z,11.54
2017-02-22T01:33:34.007Z,11.56
2017-02-22T01:34:34.377Z,11.48
2017-02-22T01:35:33.566Z,11.56
2017-02-22T01:36:34.021Z,11.54
2017-02-22T01:37:33.914Z,11.6
2017-02-22T01:38:33.525Z,11.6
2017-02-22T01:39:33.894Z,11.6
2017-02-22T01:40:34.302Z,11.6
2017-02-22T01:41:33.832Z,11.6
2017-02-22T01:42:34.238Z,11.53
2017-02-22T01:43:34.213Z,11.56
2017-02-22T01:44:33.902Z,11.6
2017-02-22T01:45:34.201Z,11.56
2017-02-22T01:46:33.780Z,11.6
2017-02-22T01:47:34.109Z,11.66
2017-02-22T01:48:33.759Z,11.58
2017-02-22T01:49:34.089Z,11.57
2017-02-22T01:50:33.798Z,11.6
2017-02-22T01:51:34.017Z,11.64
2017-02-22T01:52:33.758Z,11.64
2017-02-22T01:53:34.111Z,11.58
2017-02-22T01:54:34.036Z,11.58
2017-02-22T01:55:33.176Z,11.61
2017-02-22T01:56:33.285Z,11.6
2017-02-22T01:57:33.502Z,11.6
2017-02-22T01:58:33.494Z,11.65
2017-02-22T01:59:33.524Z,11.58
2017-02-22T02:00:33.453Z,11.58
2017-02-22T02:01:33.812Z,11.75
2017-02-22T02:02:33.812Z,11.75
2017-02-22T02:03:33.812Z,11.71
2017-02-22T02:04:33.759Z,11.69
2017-02-22T02:05:33.741Z,11.69
2017-02-22T02:06:32.942Z,11.6
2017-02-22T02:07:32.929Z,11.64
2017-02-22T02:08:33.308Z,11.61
2017-02-22T02:09:32.877Z,11.69
2017-02-22T02:10:33.247Z,11.71
2017-02-22T02:11:32.847Z,11.69
2017-02-22T02:12:33.596Z,11.73
2017-02-22T02:13:33.248Z,11.71
2017-02-22T02:14:33.585Z,11.69
2017-02-22T02:15:33.182Z,11.68
2017-02-22T02:16:32.740Z,11.71
2017-02-22T02:17:33.116Z,11.71
2017-02-22T02:18:33.073Z,11.73
2017-02-22T02:19:33.063Z,11.81
2017-02-22T02:20:33.081Z,11.86
2017-02-22T02:21:33.050Z,11.86
2017-02-22T02:22:33.022Z,11.79
2017-02-22T02:23:32.587Z,11.83
2017-02-22T02:24:32.956Z,11.79
2017-02-22T02:25:33.350Z,11.71
2017-02-22T02:26:33.329Z,11.76
2017-02-22T02:27:33.298Z,11.83
2017-02-22T02:28:32.877Z,11.79
2017-02-22T02:29:32.872Z,11.86
2017-02-22T02:30:32.843Z,11.72
2017-02-22T02:31:32.836Z,11.86
2017-02-22T02:32:32.807Z,11.76
2017-02-22T02:33:32.786Z,11.86
2017-02-22T02:34:32.761Z,11.69
2017-02-22T02:35:32.351Z,11.75
2017-02-22T02:36:32.724Z,11.87
2017-02-22T02:37:32.343Z,11.81
2017-02-22T02:38:33.073Z,11.81
2017-02-22T02:39:32.661Z,11.86
2017-02-22T02:40:32.249Z,11.83
2017-02-22T02:41:32.631Z,11.81
2017-02-22T02:42:32.601Z,11.79
2017-02-22T02:43:32.970Z,11.84
2017-02-22T02:44:32.959Z,11.89
2017-02-22T02:45:32.938Z,11.86
2017-02-22T02:46:32.529Z,11.94
2017-02-22T02:47:32.509Z,11.79
2017-02-22T02:48:32.897Z,11.83
2017-02-22T02:49:32.459Z,11.83
2017-02-22T02:50:32.456Z,11.84
2017-02-22T02:51:32.816Z,11.81
2017-02-22T02:52:32.406Z,11.83
2017-02-22T02:53:32.385Z,11.84
2017-02-22T02:54:32.787Z,11.84
2017-02-22T02:55:32.731Z,11.81
2017-02-22T02:56:32.379Z,11.81
2017-02-22T02:57:31.922Z,11.87
2017-02-22T02:58:32.290Z,11.84
2017-02-22T02:59:31.879Z,11.84
2017-02-22T03:00:32.702Z,11.84
2017-02-22T03:01:32.615Z,11.84
2017-02-22T03:02:32.589Z,11.84
2017-02-22T03:03:32.201Z,11.87
2017-02-22T03:04:32.218Z,11.84
2017-02-22T03:05:32.529Z,11.81
2017-02-22T03:06:32.110Z,11.84
2017-02-22T03:07:32.116Z,11.84
2017-02-22T03:08:32.096Z,11.91
2017-02-22T03:09:32.067Z,11.83
2017-02-22T03:10:32.546Z,11.95
2017-02-22T03:11:32.416Z,11.94
2017-02-22T03:12:32.170Z,11.87
2017-02-22T03:13:32.364Z,11.81
2017-02-22T03:14:32.063Z,11.84
2017-02-22T03:15:32.373Z,11.9
2017-02-22T03:16:31.553Z,11.86
2017-02-22T03:17:31.922Z,11.86
2017-02-22T03:18:32.270Z,11.84
2017-02-22T03:19:31.483Z,11.86
2017-02-22T03:20:31.959Z,11.86
2017-02-22T03:21:31.446Z,11.81
2017-02-22T03:22:32.231Z,11.84
2017-02-22T03:23:32.247Z,11.94
2017-02-22T03:24:32.159Z,11.89
2017-02-22T03:25:32.157Z,11.86
2017-02-22T03:26:31.406Z,11.89
2017-02-22T03:27:31.321Z,11.87
2017-02-22T03:28:31.294Z,11.83
2017-02-22T03:29:32.152Z,11.89
2017-02-22T03:30:31.654Z,11.84
2017-02-22T03:31:31.683Z,11.86
2017-02-22T03:32:31.703Z,11.89
2017-02-22T03:33:31.686Z,11.87
2017-02-22T03:34:31.961Z,11.91
2017-02-22T03:35:32.031Z,11.89
2017-02-22T03:36:31.531Z,11.91
2017-02-22T03:37:31.900Z,11.87
2017-02-22T03:38:31.881Z,11.91
2017-02-22T03:39:31.459Z,11.97
2017-02-22T03:40:31.881Z,11.9
2017-02-22T03:41:31.836Z,11.98
2017-02-22T03:42:31.401Z,11.81
2017-02-22T03:43:31.772Z,11.87
2017-02-22T03:44:31.756Z,11.91
2017-02-22T03:45:31.356Z,11.95
2017-02-22T03:46:31.335Z,11.89
2017-02-22T03:47:31.335Z,11.94
2017-02-22T03:48:30.902Z,11.99
2017-02-22T03:49:31.273Z,11.97
2017-02-22T03:50:31.253Z,11.98
2017-02-22T03:51:31.673Z,11.97
2017-02-22T03:52:31.203Z,11.95
2017-02-22T03:53:31.231Z,11.98
2017-02-22T03:54:31.182Z,11.89
2017-02-22T03:55:31.214Z,11.91
2017-02-22T03:56:31.512Z,11.97
2017-02-22T03:57:31.155Z,11.95
2017-02-22T03:58:31.069Z,11.89
2017-02-22T03:59:31.068Z,11.94
2017-02-22T04:00:30.649Z,11.97
2017-02-22T04:01:31.025Z,11.94
2017-02-22T04:02:30.997Z,11.95
2017-02-22T04:03:30.984Z,11.89
2017-02-22T04:04:31.366Z,12.02
2017-02-22T04:05:31.342Z,11.97
2017-02-22T04:06:30.524Z,11.91
2017-02-22T04:07:31.292Z,11.91
2017-02-22T04:08:31.295Z,11.9
2017-02-22T04:09:30.464Z,11.9
2017-02-22T04:10:30.861Z,11.95
2017-02-22T04:11:31.232Z,11.91
2017-02-22T04:12:31.205Z,11.91
2017-02-22T04:13:31.184Z,11.87
2017-02-22T04:14:30.768Z,11.89
2017-02-22T04:15:30.760Z,11.9
2017-02-22T04:16:31.251Z,11.98
2017-02-22T04:17:31.099Z,11.86
2017-02-22T04:18:30.678Z,11.98
2017-02-22T04:19:31.039Z,11.95
2017-02-22T04:20:30.638Z,11.91
2017-02-22T04:21:30.617Z,11.95
2017-02-22T04:22:30.600Z,11.89
2017-02-22T04:23:30.996Z,11.9
2017-02-22T04:24:30.567Z,11.97
2017-02-22T04:25:30.536Z,11.89
2017-02-22T04:26:30.512Z,11.9
2017-02-22T04:27:30.122Z,11.94
2017-02-22T04:28:30.866Z,11.95
2017-02-22T04:29:30.842Z,11.95
2017-02-22T04:30:30.843Z,11.95
2017-02-22T04:31:30.800Z,11.91
2017-02-22T04:32:30.782Z,11.95
2017-02-22T04:33:30.772Z,11.87
2017-02-22T04:34:30.750Z,11.86
2017-02-22T04:35:29.956Z,11.89
2017-02-22T04:36:30.359Z,11.98
2017-02-22T04:37:30.295Z,11.89
2017-02-22T04:38:30.691Z,11.95
2017-02-22T04:39:30.669Z,11.84
2017-02-22T04:40:30.637Z,11.94
2017-02-22T04:41:30.607Z,11.89
2017-02-22T04:42:30.215Z,11.9
2017-02-22T04:43:29.786Z,11.79
2017-02-22T04:44:30.204Z,11.89
2017-02-22T04:45:30.519Z,11.9
2017-02-22T04:46:30.504Z,11.91
2017-02-22T04:47:30.482Z,11.95
2017-02-22T04:48:30.145Z,11.99
2017-02-22T04:49:30.456Z,11.97
2017-02-22T04:50:29.713Z,11.97
2017-02-22T04:51:30.411Z,11.83
2017-02-22T04:52:30.393Z,11.94
2017-02-22T04:53:29.981Z,11.87
2017-02-22T04:54:29.947Z,11.87
2017-02-22T04:55:29.930Z,11.97
2017-02-22T04:56:30.299Z,11.95
2017-02-22T04:57:29.514Z,11.94
2017-02-22T04:58:30.268Z,11.97
2017-02-22T04:59:30.258Z,11.83
2017-02-22T05:00:29.868Z,11.89
2017-02-22T05:01:29.940Z,11.91
2017-02-22T05:02:29.821Z,11.91
2017-02-22T05:03:29.777Z,11.86
2017-02-22T05:04:29.806Z,11.91
2017-02-22T05:05:29.731Z,11.84
2017-02-22T05:06:29.415Z,11.87
2017-02-22T05:07:29.303Z,11.86
2017-02-22T05:08:30.073Z,11.84
2017-02-22T05:09:29.763Z,11.91
2017-02-22T05:10:29.633Z,11.95
2017-02-22T05:11:30.108Z,11.84
2017-02-22T05:12:29.999Z,11.89
2017-02-22T05:13:30.002Z,11.87
2017-02-22T05:14:29.950Z,11.86
2017-02-22T05:15:30.000Z,11.83
2017-02-22T05:16:29.129Z,11.86
2017-02-22T05:17:29.977Z,11.79
2017-02-22T05:18:29.879Z,11.83
2017-02-22T05:19:29.463Z,11.71
2017-02-22T05:20:29.867Z,11.81
2017-02-22T05:21:29.436Z,11.71
2017-02-22T05:22:29.876Z,11.81
2017-02-22T05:23:29.375Z,11.71
2017-02-22T05:24:29.809Z,11.76
2017-02-22T05:25:29.741Z,11.6
2017-02-22T05:26:29.313Z,11.68
2017-02-22T05:27:29.683Z,11.71
2017-02-22T05:28:29.672Z,11.68
2017-02-22T05:29:29.352Z,11.58
2017-02-22T05:30:29.232Z,11.5
2017-02-22T05:31:29.228Z,11.54
2017-02-22T05:32:29.201Z,11.51
2017-02-22T05:33:29.670Z,11.46
2017-02-22T05:34:29.159Z,11.5
2017-02-22T05:35:29.255Z,11.46
2017-02-22T05:36:29.509Z,11.5
2017-02-22T05:37:29.597Z,11.42
2017-02-22T05:38:29.477Z,11.47
2017-02-22T05:39:28.689Z,11.38
2017-02-22T05:40:29.041Z,11.36
2017-02-22T05:41:29.396Z,11.28
2017-02-22T05:42:29.460Z,11.32
2017-02-22T05:43:29.013Z,11.31
2017-02-22T05:44:28.964Z,11.39
2017-02-22T05:45:28.564Z,11.33
2017-02-22T05:46:28.912Z,11.33
2017-02-22T05:47:29.281Z,11.18
2017-02-22T05:48:29.329Z,11.24
2017-02-22T05:49:29.240Z,11.18
2017-02-22T05:50:29.226Z,11.15
2017-02-22T05:51:28.449Z,11.15
2017-02-22T05:52:28.780Z,11.18
2017-02-22T05:53:29.159Z,11.03
2017-02-22T05:54:28.757Z,10.99
2017-02-22T05:55:28.725Z,11.05
2017-02-22T05:56:28.730Z,11.1
2017-02-22T05:57:29.085Z,11
2017-02-22T05:58:28.677Z,11.02
2017-02-22T05:59:28.266Z,11.06
2017-02-22T06:00:29.020Z,11.05
2017-02-22T06:01:28.994Z,11.06
2017-02-22T06:02:28.186Z,11.02
2017-02-22T06:03:28.164Z,11.05
2017-02-22T06:04:28.932Z,11.02
2017-02-22T06:05:28.909Z,11.02
2017-02-22T06:06:28.509Z,11.03
2017-02-22T06:07:28.869Z,11.02
2017-02-22T06:08:28.071Z,11.05
2017-02-22T06:09:28.440Z,11.03
2017-02-22T06:10:28.426Z,11.05
2017-02-22T06:11:28.416Z,10.99
2017-02-22T06:12:28.777Z,10.9
2017-02-22T06:13:28.769Z,10.98
2017-02-22T06:14:28.027Z,11
2017-02-22T06:15:28.704Z,10.98
2017-02-22T06:16:28.349Z,10.92
2017-02-22T06:17:28.266Z,10.89
2017-02-22T06:18:28.245Z,10.89
2017-02-22T06:19:27.864Z,10.82
2017-02-22T06:20:28.283Z,10.81
2017-02-22T06:21:27.802Z,10.82
2017-02-22T06:22:28.573Z,10.78
2017-02-22T06:23:28.149Z,10.82
2017-02-22T06:24:28.156Z,10.82
2017-02-22T06:25:28.492Z,10.77
2017-02-22T06:26:28.091Z,10.82
2017-02-22T06:27:28.079Z,10.85
2017-02-22T06:28:28.160Z,10.81
2017-02-22T06:29:28.410Z,10.87
2017-02-22T06:30:27.716Z,10.71
2017-02-22T06:31:28.369Z,10.69
2017-02-22T06:32:27.979Z,10.8
2017-02-22T06:33:27.568Z,10.75
2017-02-22T06:34:27.927Z,10.89
2017-02-22T06:35:27.893Z,10.78
2017-02-22T06:36:27.893Z,10.82
2017-02-22T06:37:28.261Z,10.9
2017-02-22T06:38:28.272Z,10.9
2017-02-22T06:39:28.215Z,10.89
2017-02-22T06:40:27.423Z,10.89
2017-02-22T06:41:27.883Z,10.82
2017-02-22T06:42:27.363Z,10.89
2017-02-22T06:43:27.733Z,10.89
2017-02-22T06:44:27.464Z,10.87
2017-02-22T06:45:27.703Z,10.84
2017-02-22T06:46:28.073Z,10.87
2017-02-22T06:47:28.042Z,10.89
2017-02-22T06:48:28.024Z,10.8
2017-02-22T06:49:27.995Z,10.8
2017-02-22T06:50:27.990Z,10.85
2017-02-22T06:51:27.564Z,10.87
2017-02-22T06:52:27.937Z,10.89
2017-02-22T06:53:27.588Z,10.85
2017-02-22T06:54:27.523Z,10.87
2017-02-22T06:55:27.486Z,10.89
2017-02-22T06:56:27.091Z,10.92
2017-02-22T06:57:27.830Z,10.82
2017-02-22T06:58:27.818Z,10.84
2017-02-22T06:59:27.796Z,10.8
2017-02-22T07:00:27.399Z,10.84
2017-02-22T07:01:26.973Z,10.82
2017-02-22T07:02:27.362Z,10.9
2017-02-22T07:03:27.714Z,10.81
2017-02-22T07:04:27.691Z,10.87
2017-02-22T07:05:27.311Z,10.84
2017-02-22T07:06:27.288Z,10.75
2017-02-22T07:07:27.618Z,10.82
2017-02-22T07:08:27.618Z,10.77
2017-02-22T07:09:27.209Z,10.77
2017-02-22T07:10:27.570Z,10.78
2017-02-22T07:11:27.177Z,10.8
2017-02-22T07:12:27.513Z,10.8
2017-02-22T07:13:27.496Z,10.78
2017-02-22T07:14:27.091Z,10.75
2017-02-22T07:15:27.475Z,10.75
2017-02-22T07:16:27.455Z,10.71
2017-02-22T07:17:27.035Z,10.78
2017-02-22T07:18:27.023Z,10.81
2017-02-22T07:19:26.623Z,10.78
2017-02-22T07:20:26.960Z,10.74
2017-02-22T07:21:27.014Z,10.78
2017-02-22T07:22:26.542Z,10.77
2017-02-22T07:23:27.300Z,10.74
2017-02-22T07:24:26.893Z,10.75
2017-02-22T07:25:26.874Z,10.66
2017-02-22T07:26:26.859Z,10.71
2017-02-22T07:27:26.836Z,10.75
2017-02-22T07:28:26.861Z,10.77
2017-02-22T07:29:26.790Z,10.78
2017-02-22T07:30:27.155Z,10.75
2017-02-22T07:31:26.757Z,10.72
2017-02-22T07:32:27.125Z,10.72
2017-02-22T07:33:26.715Z,10.66
2017-02-22T07:34:26.692Z,10.81
2017-02-22T07:35:26.280Z,10.84
2017-02-22T07:36:27.044Z,10.82
2017-02-22T07:37:26.632Z,10.78
2017-02-22T07:38:26.998Z,10.82
2017-02-22T07:39:26.182Z,10.67
2017-02-22T07:40:26.562Z,10.67
2017-02-22T07:41:26.934Z,10.6
2017-02-22T07:42:26.902Z,10.74
2017-02-22T07:43:26.910Z,10.74
2017-02-22T07:44:26.483Z,10.89
2017-02-22T07:45:26.852Z,10.82
2017-02-22T07:46:26.817Z,10.78
2017-02-22T07:47:26.058Z,10.77
2017-02-22T07:48:26.391Z,10.78
2017-02-22T07:49:26.769Z,10.77
2017-02-22T07:50:26.358Z,10.78
2017-02-22T07:51:26.337Z,10.75
2017-02-22T07:52:26.307Z,10.77
2017-02-22T07:53:26.740Z,10.82
2017-02-22T07:54:26.654Z,10.87
2017-02-22T07:55:26.267Z,10.89
2017-02-22T07:56:26.231Z,10.89
2017-02-22T07:57:26.209Z,10.89
2017-02-22T07:58:26.582Z,10.9
2017-02-22T07:59:26.551Z,10.9
2017-02-22T08:00:26.540Z,10.85
2017-02-22T08:01:26.180Z,10.85
2017-02-22T08:02:26.492Z,11
2017-02-22T08:03:26.139Z,10.98
2017-02-22T08:04:26.072Z,10.96
2017-02-22T08:05:26.103Z,10.92
2017-02-22T08:06:26.012Z,10.96
2017-02-22T08:07:26.063Z,10.87
2017-02-22T08:08:26.031Z,10.9
2017-02-22T08:09:26.332Z,10.93
2017-02-22T08:10:25.946Z,10.92
2017-02-22T08:11:25.584Z,10.82
2017-02-22T08:12:25.896Z,10.87
2017-02-22T08:13:25.536Z,10.84
2017-02-22T08:14:25.510Z,10.85
2017-02-22T08:15:25.851Z,10.95
2017-02-22T08:16:26.212Z,10.96
2017-02-22T08:17:26.183Z,11
2017-02-22T08:18:25.775Z,11.03
2017-02-22T08:19:25.740Z,10.96
2017-02-22T08:20:25.730Z,10.99
2017-02-22T08:21:26.100Z,11.03
2017-02-22T08:22:25.309Z,11.03
2017-02-22T08:23:25.674Z,10.99
2017-02-22T08:24:26.039Z,11.08
2017-02-22T08:25:25.247Z,11.03
2017-02-22T08:26:25.999Z,11.1
2017-02-22T08:27:25.618Z,11.05
2017-02-22T08:28:25.577Z,11.05
2017-02-22T08:29:25.549Z,11
2017-02-22T08:30:25.556Z,11.03
2017-02-22T08:31:25.926Z,11.14
2017-02-22T08:32:25.916Z,11.1
2017-02-22T08:33:25.474Z,10.99
2017-02-22T08:34:25.064Z,11.02
2017-02-22T08:35:25.822Z,11
2017-02-22T08:36:25.399Z,11.05
2017-02-22T08:37:25.762Z,11.11
2017-02-22T08:38:25.759Z,11.13
2017-02-22T08:39:25.351Z,11.03
2017-02-22T08:40:25.329Z,11
2017-02-22T08:41:25.680Z,11.05
2017-02-22T08:42:25.268Z,11.13
2017-02-22T08:43:25.639Z,11.11
2017-02-22T08:44:24.850Z,11.02
2017-02-22T08:45:25.223Z,10.95
2017-02-22T08:46:25.197Z,11.02
2017-02-22T08:47:25.557Z,11.05
2017-02-22T08:48:25.146Z,11
2017-02-22T08:49:25.532Z,11
2017-02-22T08:50:25.110Z,11.05
2017-02-22T08:51:25.092Z,11.05
2017-02-22T08:52:25.467Z,11.05
2017-02-22T08:53:25.044Z,11.05
2017-02-22T08:54:25.423Z,11.05
2017-02-22T08:55:25.015Z,10.99
2017-02-22T08:56:25.375Z,10.96
2017-02-22T08:57:24.981Z,11.05
2017-02-22T08:58:24.951Z,11.03
2017-02-22T08:59:25.329Z,11.05
2017-02-22T09:00:25.340Z,11.13
2017-02-22T09:01:24.500Z,11.08
2017-02-22T09:02:25.266Z,11.02
2017-02-22T09:03:25.302Z,11.02
2017-02-22T09:04:24.827Z,11.05
2017-02-22T09:05:24.808Z,11.14
2017-02-22T09:06:25.175Z,11.1
2017-02-22T09:07:24.787Z,11.08
2017-02-22T09:08:25.126Z,11.06
2017-02-22T09:09:24.725Z,11
2017-02-22T09:10:24.346Z,11.08
2017-02-22T09:11:24.696Z,11.02
2017-02-22T09:12:25.053Z,10.99
2017-02-22T09:13:24.714Z,11.14
2017-02-22T09:14:25.026Z,10.96
2017-02-22T09:15:24.602Z,11.13
2017-02-22T09:16:24.235Z,11.06
2017-02-22T09:17:24.972Z,11.05
2017-02-22T09:18:24.540Z,11.02
2017-02-22T09:19:24.580Z,11.06
2017-02-22T09:20:24.907Z,11.17
2017-02-22T09:21:24.568Z,11.14
2017-02-22T09:22:24.458Z,11.28
2017-02-22T09:23:24.468Z,11.2
2017-02-22T09:24:24.036Z,11.15
2017-02-22T09:25:24.497Z,11.18
2017-02-22T09:26:24.776Z,11.1
2017-02-22T09:27:24.393Z,11.13
2017-02-22T09:28:24.735Z,11.02
2017-02-22T09:29:24.037Z,11.08
2017-02-22T09:30:24.684Z,11.1
2017-02-22T09:31:24.708Z,11.2
2017-02-22T09:32:24.664Z,11.26
2017-02-22T09:33:24.695Z,11.24
2017-02-22T09:34:23.851Z,11.33
2017-02-22T09:35:24.212Z,11.32
2017-02-22T09:36:24.172Z,11.33
2017-02-22T09:37:24.232Z,11.33
2017-02-22T09:38:23.761Z,11.33
2017-02-22T09:39:24.493Z,11.23
2017-02-22T09:40:24.529Z,11.36
2017-02-22T09:41:24.530Z,11.36
2017-02-22T09:42:24.059Z,11.32
2017-02-22T09:43:23.757Z,11.38
2017-02-22T09:44:24.049Z,11.23
2017-02-22T09:45:24.021Z,11.32
2017-02-22T09:46:24.376Z,11.33
2017-02-22T09:47:24.346Z,11.35
2017-02-22T09:48:23.944Z,11.36
2017-02-22T09:49:23.930Z,11.38
2017-02-22T09:50:24.383Z,11.46
2017-02-22T09:51:23.924Z,11.51
2017-02-22T09:52:24.253Z,11.51
2017-02-22T09:53:24.242Z,11.54
2017-02-22T09:54:24.212Z,11.4
2017-02-22T09:55:24.290Z,11.47
2017-02-22T09:56:23.413Z,11.48
2017-02-22T09:57:23.826Z,11.42
2017-02-22T09:58:24.131Z,11.46
2017-02-22T09:59:24.140Z,11.4
2017-02-22T10:00:23.699Z,11.48
2017-02-22T10:01:23.308Z,11.43
2017-02-22T10:02:23.667Z,11.42
2017-02-22T10:03:23.649Z,11.43
2017-02-22T10:04:23.235Z,11.46
2017-02-22T10:05:23.989Z,11.53
2017-02-22T10:06:23.192Z,11.53
2017-02-22T10:07:23.960Z,11.42
2017-02-22T10:08:23.145Z,11.46
2017-02-22T10:09:23.982Z,11.47
2017-02-22T10:10:23.117Z,11.46
2017-02-22T10:11:23.913Z,11.43
2017-02-22T10:12:23.852Z,11.32
2017-02-22T10:13:23.831Z,11.31
2017-02-22T10:14:23.021Z,11.32
2017-02-22T10:15:23.869Z,11.38
2017-02-22T10:16:23.776Z,11.28
2017-02-22T10:17:23.348Z,11.33
2017-02-22T10:18:23.337Z,11.39
2017-02-22T10:19:23.697Z,11.4
2017-02-22T10:20:23.286Z,11.35
2017-02-22T10:21:23.276Z,11.38
2017-02-22T10:22:23.686Z,11.46
2017-02-22T10:23:23.734Z,11.46
2017-02-22T10:24:23.204Z,11.43
2017-02-22T10:25:22.802Z,11.42
2017-02-22T10:26:23.169Z,11.43
2017-02-22T10:27:22.769Z,11.47
2017-02-22T10:28:23.583Z,11.53
2017-02-22T10:29:22.723Z,11.42
2017-02-22T10:30:23.130Z,11.42
2017-02-22T10:31:23.072Z,11.46
2017-02-22T10:32:23.061Z,11.4
2017-02-22T10:33:23.030Z,11.42
2017-02-22T10:34:23.007Z,11.51
2017-02-22T10:35:22.991Z,11.47
2017-02-22T10:36:22.591Z,11.57
2017-02-22T10:37:23.348Z,11.54
2017-02-22T10:38:23.313Z,11.6
2017-02-22T10:39:23.327Z,11.58
2017-02-22T10:40:23.265Z,11.58
2017-02-22T10:41:23.305Z,11.57
2017-02-22T10:42:23.226Z,11.68
2017-02-22T10:43:22.829Z,11.66
2017-02-22T10:44:23.205Z,11.57
2017-02-22T10:45:23.183Z,11.57
2017-02-22T10:46:23.169Z,11.47
2017-02-22T10:47:23.131Z,11.51
2017-02-22T10:48:22.741Z,11.57
2017-02-22T10:49:22.714Z,11.64
2017-02-22T10:50:22.311Z,11.57
2017-02-22T10:51:22.297Z,11.6
2017-02-22T10:52:22.669Z,11.57
2017-02-22T10:53:22.704Z,11.57
2017-02-22T10:54:22.610Z,11.58
2017-02-22T10:55:22.618Z,11.58
2017-02-22T10:56:22.589Z,11.58
2017-02-22T10:57:23.013Z,11.68
2017-02-22T10:58:22.916Z,11.73
2017-02-22T10:59:22.236Z,11.6
2017-02-22T11:00:22.110Z,11.6
2017-02-22T11:01:22.890Z,11.56
2017-02-22T11:02:22.446Z,11.58
2017-02-22T11:03:22.440Z,11.57
2017-02-22T11:04:22.793Z,11.47
2017-02-22T11:05:22.412Z,11.5
2017-02-22T11:06:22.382Z,11.48
2017-02-22T11:07:22.373Z,11.58
2017-02-22T11:08:22.729Z,11.51
2017-02-22T11:09:22.341Z,11.5
2017-02-22T11:10:22.298Z,11.53
2017-02-22T11:11:22.770Z,11.54
2017-02-22T11:12:22.640Z,11.65
2017-02-22T11:13:22.249Z,11.56
2017-02-22T11:14:22.623Z,11.58
2017-02-22T11:15:22.278Z,11.6
2017-02-22T11:16:22.636Z,11.58
2017-02-22T11:17:22.590Z,11.58
2017-02-22T11:18:22.146Z,11.57
2017-02-22T11:19:22.127Z,11.53
2017-02-22T11:20:22.087Z,11.72
2017-02-22T11:21:22.188Z,11.61
2017-02-22T11:22:22.465Z,11.58
2017-02-22T11:23:22.409Z,11.6
2017-02-22T11:24:22.044Z,11.72
2017-02-22T11:25:22.127Z,11.72
2017-02-22T11:26:21.993Z,11.69
2017-02-22T11:27:22.091Z,11.61
2017-02-22T11:28:22.051Z,11.58
2017-02-22T11:29:22.310Z,11.69
2017-02-22T11:30:22.370Z,11.56
2017-02-22T11:31:21.488Z,11.58
2017-02-22T11:32:21.468Z,11.66
2017-02-22T11:33:21.828Z,11.57
2017-02-22T11:34:21.868Z,11.71
2017-02-22T11:35:22.198Z,11.61
2017-02-22T11:36:21.877Z,11.69
2017-02-22T11:37:22.156Z,11.78
2017-02-22T11:38:21.742Z,11.79
2017-02-22T11:39:22.196Z,11.71
2017-02-22T11:40:21.325Z,11.71
2017-02-22T11:41:21.694Z,11.73
2017-02-22T11:42:21.663Z,11.86
2017-02-22T11:43:21.643Z,11.86
2017-02-22T11:44:22.073Z,11.87
2017-02-22T11:45:22.029Z,11.84
2017-02-22T11:46:21.619Z,11.81
2017-02-22T11:47:21.571Z,11.83
2017-02-22T11:48:21.990Z,11.75
2017-02-22T11:49:21.545Z,11.86
2017-02-22T11:50:21.520Z,11.83
2017-02-22T11:51:21.479Z,11.72
2017-02-22T11:52:21.867Z,11.78
2017-02-22T11:53:21.447Z,11.75
2017-02-22T11:54:21.049Z,11.71
2017-02-22T11:55:21.410Z,11.76
2017-02-22T11:56:20.997Z,11.68
2017-02-22T11:57:21.367Z,11.76
2017-02-22T11:58:21.337Z,11.79
2017-02-22T11:59:21.346Z,11.76
2017-02-22T12:00:21.400Z,11.58
2017-02-22T12:01:20.923Z,11.56
2017-02-22T12:02:20.893Z,11.75
2017-02-22T12:03:20.877Z,11.72
2017-02-22T12:04:21.622Z,11.73
2017-02-22T12:05:21.212Z,11.66
2017-02-22T12:06:21.208Z,11.71
2017-02-22T12:07:21.587Z,11.72
2017-02-22T12:08:21.169Z,11.66
2017-02-22T12:09:21.530Z,11.72
2017-02-22T12:10:21.109Z,11.6
2017-02-22T12:11:21.539Z,11.61
2017-02-22T12:12:21.069Z,11.58
2017-02-22T12:13:21.048Z,11.58
2017-02-22T12:14:21.437Z,11.56
2017-02-22T12:15:21.037Z,11.61
2017-02-22T12:16:21.376Z,11.58
2017-02-22T12:17:20.592Z,11.54
2017-02-22T12:18:20.976Z,11.57
2017-02-22T12:19:21.342Z,11.58
2017-02-22T12:20:20.942Z,11.57
2017-02-22T12:21:21.277Z,11.54
2017-02-22T12:22:20.879Z,11.56
2017-02-22T12:23:21.254Z,11.53
2017-02-22T12:24:20.833Z,11.6
2017-02-22T12:25:21.251Z,11.6
2017-02-22T12:26:21.183Z,11.68
2017-02-22T12:27:20.801Z,11.69
2017-02-22T12:28:20.752Z,11.66
2017-02-22T12:29:20.741Z,11.73
2017-02-22T12:30:21.119Z,11.75
2017-02-22T12:31:20.304Z,11.73
2017-02-22T12:32:20.680Z,11.76
2017-02-22T12:33:21.064Z,11.83
2017-02-22T12:34:21.008Z,11.78
2017-02-22T12:35:21.039Z,11.81
2017-02-22T12:36:20.977Z,11.72
2017-02-22T12:37:20.588Z,11.71
2017-02-22T12:38:20.570Z,11.72
2017-02-22T12:39:20.551Z,11.71
2017-02-22T12:40:20.514Z,11.79
2017-02-22T12:41:20.875Z,11.75
2017-02-22T12:42:20.483Z,11.78
2017-02-22T12:43:20.528Z,11.81
2017-02-22T12:44:20.436Z,11.83
2017-02-22T12:45:20.811Z,11.79
2017-02-22T12:46:20.391Z,11.87
2017-02-22T12:47:20.429Z,11.84
2017-02-22T12:48:19.965Z,11.68
2017-02-22T12:49:20.365Z,11.84
2017-02-22T12:50:20.325Z,11.86
2017-02-22T12:51:20.298Z,11.84
2017-02-22T12:52:20.693Z,11.75
2017-02-22T12:53:20.646Z,11.73
2017-02-22T12:54:20.639Z,11.66
2017-02-22T12:55:20.326Z,11.6